createdAt,value
2023-04-08T00:01:41.836Z,91547.66
2023-04-08T00:04:09.877Z,91545.06
2023-04-08T00:06:37.291Z,91550.00
2023-04-08T00:09:05.589Z,91550.50
2023-04-08T00:11:32.274Z,91557.25
2023-04-08T00:13:59.890Z,91552.84
2023-04-08T00:16:26.649Z,91555.44
2023-04-08T00:18:53.308Z,91544.03
2023-04-08T00:21:21.255Z,91545.31
2023-04-08T00:23:47.988Z,91543.78
2023-04-08T00:26:14.707Z,91543.75
2023-04-08T00:28:42.713Z,91534.41
2023-04-08T00:31:09.759Z,91528.19
2023-04-08T00:33:36.723Z,91537.00
2023-04-08T00:36:03.501Z,91538.06
2023-04-08T00:38:31.005Z,91536.50
2023-04-08T00:40:58.407Z,91534.41
2023-04-08T00:43:25.304Z,91536.47
2023-04-08T00:45:52.097Z,91535.94
2023-04-08T00:48:18.861Z,91545.81
2023-04-08T00:50:47.107Z,91537.53
2023-04-08T00:53:18.454Z,91541.69
2023-04-08T00:55:45.422Z,91536.50
2023-04-08T00:58:12.675Z,91542.19
2023-04-08T01:00:43.132Z,91533.63
2023-04-08T01:03:20.892Z,91540.63
2023-04-08T01:06:00.047Z,91535.44
2023-04-08T01:08:27.805Z,91538.31
2023-04-08T01:10:54.438Z,91543.25
2023-04-08T01:13:21.097Z,91533.91
2023-04-08T01:15:47.850Z,91539.06
2023-04-08T01:18:14.564Z,91540.88
2023-04-08T01:20:42.186Z,91543.75
2023-04-08T01:23:08.684Z,91542.19
2023-04-08T01:25:37.199Z,91543.47
2023-04-08T01:28:17.060Z,91551.28
2023-04-08T01:30:43.696Z,91554.16
2023-04-08T01:33:14.503Z,91551.53
2023-04-08T01:35:41.163Z,91561.16
2023-04-08T01:38:09.184Z,91555.72
2023-04-08T01:40:35.919Z,91552.56
2023-04-08T01:43:03.263Z,91552.06
2023-04-08T01:45:30.374Z,91555.19
2023-04-08T01:47:57.216Z,91552.06
2023-04-08T01:50:24.053Z,91557.75
2023-04-08T01:52:53.034Z,91562.94
2023-04-08T01:55:19.944Z,91573.88
2023-04-08T01:57:51.512Z,91572.81
2023-04-08T02:00:24.093Z,91569.19
2023-04-08T02:02:50.849Z,91572.56
2023-04-08T02:05:17.831Z,91575.69
2023-04-08T02:07:46.763Z,91575.94
2023-04-08T02:10:13.415Z,91580.88
2023-04-08T02:12:40.013Z,91585.28
2023-04-08T02:15:07.081Z,91584.75
2023-04-08T02:17:42.783Z,91578.03
2023-04-08T02:20:40.027Z,91585.28
2023-04-08T02:23:14.733Z,91575.94
2023-04-08T02:25:43.328Z,91582.41
2023-04-08T02:28:11.270Z,91579.31
2023-04-08T02:30:44.297Z,91583.22
2023-04-08T02:33:11.877Z,91581.88
2023-04-08T02:35:38.601Z,91578.97
2023-04-08T02:38:05.409Z,91582.66
2023-04-08T02:40:33.164Z,91581.88
2023-04-08T02:43:00.113Z,91582.66
2023-04-08T02:45:28.470Z,91596.34
2023-04-08T02:47:55.481Z,91581.34
2023-04-08T02:50:22.284Z,91586.75
2023-04-08T02:52:48.859Z,91589.53
2023-04-08T02:55:15.759Z,91588.31
2023-04-08T02:57:42.627Z,91583.09
2023-04-08T03:00:09.956Z,91584.19
2023-04-08T03:02:36.717Z,91581.59
2023-04-08T03:05:05.445Z,91580.59
2023-04-08T03:07:32.628Z,91583.47
2023-04-08T03:09:59.328Z,91592.78
2023-04-08T03:12:27.677Z,91591.19
2023-04-08T03:14:54.533Z,91593.81
2023-04-08T03:17:21.415Z,91592.75
2023-04-08T03:19:48.076Z,91591.72
2023-04-08T03:22:14.694Z,91593.03
2023-04-08T03:24:41.241Z,91589.41
2023-04-08T03:27:08.531Z,91592.75
2023-04-08T03:29:35.372Z,91589.88
2023-04-08T03:32:02.624Z,91584.72
2023-04-08T03:34:29.295Z,91578.53
2023-04-08T03:36:56.160Z,91582.41
2023-04-08T03:39:22.788Z,91577.97
2023-04-08T03:41:49.467Z,91583.44
2023-04-08T03:44:16.212Z,91584.22
2023-04-08T03:46:42.836Z,91576.97
2023-04-08T03:49:09.526Z,91589.84
2023-04-08T03:51:36.176Z,91584.94
2023-04-08T03:54:02.964Z,91581.84
2023-04-08T03:56:29.743Z,91593.56
2023-04-08T03:58:56.417Z,91594.84
2023-04-08T04:01:23.084Z,91593.78
2023-04-08T04:03:49.850Z,91592.44
2023-04-08T04:06:16.597Z,91605.69
2023-04-08T04:08:43.219Z,91596.13
2023-04-08T04:11:09.904Z,91591.47
2023-04-08T04:13:36.596Z,91604.72
2023-04-08T04:16:03.408Z,91594.59
2023-04-08T04:18:30.214Z,91604.44
2023-04-08T04:20:56.841Z,91596.63
2023-04-08T04:23:25.748Z,91592.44
2023-04-08T04:25:52.536Z,91603.19
2023-04-08T04:28:19.207Z,91595.16
2023-04-08T04:30:46.268Z,91602.16
2023-04-08T04:33:12.998Z,91606.31
2023-04-08T04:35:39.974Z,91600.81
2023-04-08T04:38:11.065Z,91605.25
2023-04-08T04:40:37.816Z,91600.88
2023-04-08T04:43:04.506Z,91605.53
2023-04-08T04:45:31.201Z,91606.06
2023-04-08T04:47:57.850Z,91607.84
2023-04-08T04:50:24.573Z,91609.16
2023-04-08T04:52:51.175Z,91613.06
2023-04-08T04:55:17.917Z,91607.34
2023-04-08T04:57:44.611Z,91608.69
2023-04-08T05:00:11.703Z,91610.50
2023-04-08T05:02:38.412Z,91616.44
2023-04-08T05:05:05.583Z,91615.38
2023-04-08T05:07:32.340Z,91600.88
2023-04-08T05:09:59.018Z,91608.41
2023-04-08T05:12:25.783Z,91619.03
2023-04-08T05:14:52.392Z,91608.41
2023-04-08T05:17:19.085Z,91605.53
2023-04-08T05:19:45.800Z,91613.84
2023-04-08T05:22:12.354Z,91610.22
2023-04-08T05:24:38.959Z,91613.63
2023-04-08T05:27:05.773Z,91610.75
2023-04-08T05:29:32.398Z,91610.22
2023-04-08T05:31:59.304Z,91613.34
2023-04-08T05:34:25.999Z,91610.47
2023-04-08T05:36:52.597Z,91608.09
2023-04-08T05:39:19.562Z,91602.59
2023-04-08T05:41:46.600Z,91615.78
2023-04-08T05:44:14.095Z,91618.94
2023-04-08T05:46:40.737Z,91608.94
2023-04-08T05:49:07.464Z,91616.34
2023-04-08T05:51:34.106Z,91614.59
2023-04-08T05:54:00.960Z,91610.38
2023-04-08T05:56:27.702Z,91610.84
2023-04-08T05:58:54.321Z,91609.59
2023-04-08T06:01:21.460Z,91609.47
2023-04-08T06:03:48.256Z,91608.72
2023-04-08T06:06:15.112Z,91602.25
2023-04-08T06:08:41.690Z,91600.09
2023-04-08T06:11:08.398Z,91603.69
2023-04-08T06:13:35.229Z,91595.66
2023-04-08T06:16:15.075Z,91591.59
2023-04-08T06:18:41.714Z,91597.63
2023-04-08T06:21:08.444Z,91603.75
2023-04-08T06:23:35.137Z,91602.78
2023-04-08T06:26:01.782Z,91610.00
2023-04-08T06:28:29.781Z,91608.53
2023-04-08T06:30:56.924Z,91608.44
2023-04-08T06:33:23.586Z,91608.81
2023-04-08T06:35:50.623Z,91609.03
2023-04-08T06:38:17.298Z,91607.88
2023-04-08T06:40:43.975Z,91607.88
2023-04-08T06:43:10.712Z,91611.19
2023-04-08T06:45:37.415Z,91608.28
2023-04-08T06:48:04.284Z,91611.41
2023-04-08T06:50:31.067Z,91613.00
2023-04-08T06:52:57.618Z,91613.94
2023-04-08T06:55:24.259Z,91609.66
2023-04-08T06:57:51.010Z,91603.72
2023-04-08T07:00:17.967Z,91604.66
2023-04-08T07:02:45.053Z,91598.69
2023-04-08T07:05:11.882Z,91604.69
2023-04-08T07:07:38.631Z,91602.00
2023-04-08T07:10:07.279Z,91608.72
2023-04-08T07:12:35.574Z,91608.16
2023-04-08T07:15:02.273Z,91608.22
2023-04-08T07:17:29.087Z,91618.09
2023-04-08T07:19:55.952Z,91613.91
2023-04-08T07:22:22.657Z,91615.56
2023-04-08T07:24:49.927Z,91615.53
2023-04-08T07:27:17.354Z,91614.72
2023-04-08T07:29:44.072Z,91620.25
2023-04-08T07:32:10.793Z,91612.63
2023-04-08T07:34:37.607Z,91609.81
2023-04-08T07:37:04.291Z,91618.25
2023-04-08T07:39:31.149Z,91614.84
2023-04-08T07:41:57.826Z,91614.84
2023-04-08T07:44:24.528Z,91623.22
2023-04-08T07:46:51.953Z,91624.84
2023-04-08T07:49:18.786Z,91622.72
2023-04-08T07:51:45.388Z,91628.03
2023-04-08T07:54:17.377Z,91632.97
2023-04-08T07:56:44.910Z,91631.91
2023-04-08T07:59:12.020Z,91637.28
2023-04-08T08:01:38.765Z,91632.31
2023-04-08T08:04:05.653Z,91637.25
2023-04-08T08:06:32.722Z,91634.47
2023-04-08T08:08:59.981Z,91642.13
2023-04-08T08:11:30.049Z,91638.22
2023-04-08T08:13:57.054Z,91631.22
2023-04-08T08:16:27.319Z,91635.91
2023-04-08T08:18:54.054Z,91637.06
2023-04-08T08:21:20.748Z,91643.91
2023-04-08T08:23:47.679Z,91648.69
2023-04-08T08:26:14.341Z,91649.06
2023-04-08T08:28:40.942Z,91655.91
2023-04-08T08:31:07.847Z,91656.88
2023-04-08T08:33:34.554Z,91644.44
2023-04-08T08:36:01.265Z,91659.00
2023-04-08T08:38:28.038Z,91655.72
2023-04-08T08:40:56.339Z,91652.88
2023-04-08T08:43:24.294Z,91653.81
2023-04-08T08:45:51.347Z,91658.56
2023-04-08T08:48:18.062Z,91659.69
2023-04-08T08:50:44.724Z,91663.22
2023-04-08T08:53:11.560Z,91662.66
2023-04-08T08:56:05.537Z,91664.75
2023-04-08T08:58:29.594Z,91665.91
2023-04-08T09:00:56.361Z,91673.34
2023-04-08T09:03:29.706Z,91673.00
2023-04-08T09:06:01.098Z,91669.50
2023-04-08T09:08:34.552Z,91675.13
2023-04-08T09:11:14.352Z,91673.44
2023-04-08T09:13:41.226Z,91675.41
2023-04-08T09:16:11.918Z,91671.91
2023-04-08T09:18:38.743Z,91659.38
2023-04-08T09:21:06.415Z,91658.19
2023-04-08T09:23:42.649Z,91664.50
2023-04-08T09:26:19.809Z,91663.31
2023-04-08T09:29:24.082Z,91665.56
2023-04-08T09:31:58.550Z,91652.94
2023-04-08T09:34:25.867Z,91658.06
2023-04-08T09:36:52.698Z,91647.69
2023-04-08T09:39:19.498Z,91643.97
2023-04-08T09:41:48.996Z,91650.78
2023-04-08T09:44:16.936Z,91648.88
2023-04-08T09:46:49.597Z,91657.88
2023-04-08T09:49:25.564Z,91651.56
2023-04-08T09:52:19.513Z,91656.19
2023-04-08T09:55:06.781Z,91655.09
2023-04-08T09:57:54.725Z,91653.94
2023-04-08T10:00:28.911Z,91641.78
2023-04-08T10:02:59.436Z,91642.81
2023-04-08T10:05:26.313Z,91647.06
2023-04-08T10:07:52.982Z,91642.72
2023-04-08T10:10:19.975Z,91643.16
2023-04-08T10:12:46.585Z,91649.00
2023-04-08T10:15:26.088Z,91634.66
2023-04-08T10:17:53.656Z,91639.97
2023-04-08T10:20:44.045Z,91653.13
2023-04-08T10:23:14.913Z,91649.53
2023-04-08T10:25:41.884Z,91648.56
2023-04-08T10:28:11.348Z,91646.16
2023-04-08T10:30:51.031Z,91653.69
2023-04-08T10:33:18.387Z,91641.00
2023-04-08T10:35:59.536Z,91643.16
2023-04-08T10:38:26.207Z,91648.59
2023-04-08T10:40:53.759Z,91639.84
2023-04-08T10:43:20.839Z,91630.34
2023-04-08T10:45:51.403Z,91628.84
2023-04-08T10:48:23.086Z,91626.22
2023-04-08T10:50:57.016Z,91628.38
2023-04-08T10:53:36.761Z,91624.22
2023-04-08T10:56:24.548Z,91617.69
2023-04-08T10:58:52.372Z,91616.13
2023-04-08T11:01:19.137Z,91621.09
2023-04-08T11:03:46.076Z,91612.88
2023-04-08T11:06:13.007Z,91609.66
2023-04-08T11:08:39.619Z,91613.81
2023-04-08T11:11:09.281Z,91605.22
2023-04-08T11:13:36.916Z,91600.97
2023-04-08T11:16:16.505Z,91598.91
2023-04-08T11:18:45.950Z,91602.16
2023-04-08T11:21:12.740Z,91604.44
2023-04-08T11:23:39.445Z,91603.69
2023-04-08T11:26:06.541Z,91609.09
2023-04-08T11:28:33.165Z,91596.94
2023-04-08T11:30:59.928Z,91601.25
2023-04-08T11:33:29.290Z,91591.75
2023-04-08T11:35:56.631Z,91601.06
2023-04-08T11:38:24.297Z,91597.16
2023-04-08T11:40:55.410Z,91593.44
2023-04-08T11:43:22.224Z,91606.28
2023-04-08T11:45:48.938Z,91593.72
2023-04-08T11:48:16.474Z,91595.59
2023-04-08T11:50:43.695Z,91593.56
2023-04-08T11:53:25.283Z,91584.94
2023-04-08T11:55:51.984Z,91591.34
2023-04-08T11:58:18.651Z,91589.25
2023-04-08T12:00:45.819Z,91588.00
2023-04-08T12:03:13.556Z,91579.88
2023-04-08T12:05:40.742Z,91582.56
2023-04-08T12:08:07.479Z,91577.84
2023-04-08T12:10:34.164Z,91575.84
2023-04-08T12:13:00.802Z,91567.94
2023-04-08T12:15:27.547Z,91569.56
2023-04-08T12:17:54.343Z,91570.81
2023-04-08T12:20:21.140Z,91570.44
2023-04-08T12:22:47.798Z,91564.19
2023-04-08T12:25:14.387Z,91567.78
2023-04-08T12:27:41.092Z,91561.53
2023-04-08T12:30:08.614Z,91563.75
2023-04-08T12:32:35.359Z,91557.63
2023-04-08T12:35:02.084Z,91553.16
2023-04-08T12:37:28.873Z,91548.16
2023-04-08T12:39:55.622Z,91549.94
2023-04-08T12:42:22.369Z,91544.78
2023-04-08T12:44:49.009Z,91549.63
2023-04-08T12:47:15.930Z,91550.63
2023-04-08T12:49:49.396Z,91541.16
2023-04-08T12:52:17.467Z,91546.41
2023-04-08T12:54:44.474Z,91548.63
2023-04-08T12:57:11.294Z,91543.97
2023-04-08T12:59:39.858Z,91536.06
2023-04-08T13:02:07.007Z,91530.22
2023-04-08T13:04:33.639Z,91534.63
2023-04-08T13:07:01.010Z,91525.88
2023-04-08T13:09:27.737Z,91534.25
2023-04-08T13:11:54.325Z,91534.19
2023-04-08T13:14:21.345Z,91533.34
2023-04-08T13:16:48.007Z,91526.50
2023-04-08T13:19:14.910Z,91534.13
2023-04-08T13:21:41.626Z,91538.06
2023-04-08T13:24:10.763Z,91531.56
2023-04-08T13:26:44.170Z,91535.09
2023-04-08T13:29:17.342Z,91533.56
2023-04-08T13:32:13.827Z,91537.28
2023-04-08T13:35:21.009Z,91551.47
2023-04-08T13:37:51.799Z,91552.69
2023-04-08T13:40:18.660Z,91546.66
2023-04-08T13:42:45.317Z,91551.44
2023-04-08T13:45:12.049Z,91550.38
2023-04-08T13:47:38.923Z,91547.09
2023-04-08T13:50:08.993Z,91554.84
2023-04-08T13:52:36.010Z,91548.63
2023-04-08T13:55:02.787Z,91539.06
2023-04-08T13:57:29.525Z,91537.81
2023-04-08T13:59:56.223Z,91521.13
2023-04-08T14:02:23.728Z,91524.50
2023-04-08T14:04:50.609Z,91519.72
2023-04-08T14:07:17.413Z,91518.00
2023-04-08T14:09:44.052Z,91517.06
2023-04-08T14:12:10.918Z,91517.56
2023-04-08T14:14:37.495Z,91515.59
2023-04-08T14:17:04.354Z,91526.78
2023-04-08T14:19:31.242Z,91520.88
2023-04-08T14:21:57.861Z,91532.03
2023-04-08T14:24:24.539Z,91525.25
2023-04-08T14:26:51.221Z,91526.19
2023-04-08T14:29:17.877Z,91530.69
2023-04-08T14:31:44.581Z,91532.31
2023-04-08T14:34:11.237Z,91532.03
2023-04-08T14:36:37.857Z,91533.81
2023-04-08T14:39:04.563Z,91531.84
2023-04-08T14:41:31.497Z,91535.91
2023-04-08T14:43:58.098Z,91534.34
2023-04-08T14:46:28.584Z,91534.09
2023-04-08T14:48:55.863Z,91532.66
2023-04-08T14:51:22.559Z,91534.94
2023-04-08T14:53:49.214Z,91531.47
2023-04-08T14:56:16.143Z,91522.34
2023-04-08T14:58:42.747Z,91530.25
2023-04-08T15:01:09.388Z,91531.53
2023-04-08T15:03:36.195Z,91514.75
2023-04-08T15:06:03.506Z,91522.41
2023-04-08T15:08:30.140Z,91521.88
2023-04-08T15:10:57.148Z,91524.94
2023-04-08T15:13:23.824Z,91526.81
2023-04-08T15:15:50.580Z,91526.97
2023-04-08T15:18:17.348Z,91534.16
2023-04-08T15:20:43.903Z,91530.59
2023-04-08T15:23:10.606Z,91527.91
2023-04-08T15:25:37.313Z,91539.59
2023-04-08T15:28:04.565Z,91539.75
2023-04-08T15:30:35.365Z,91533.97
2023-04-08T15:33:03.725Z,91528.69
2023-04-08T15:35:30.858Z,91534.50
2023-04-08T15:37:57.634Z,91537.44
2023-04-08T15:40:24.392Z,91534.63
2023-04-08T15:42:51.075Z,91530.81
2023-04-08T15:45:17.726Z,91536.31
2023-04-08T15:47:44.474Z,91531.31
2023-04-08T15:50:11.605Z,91535.47
2023-04-08T15:52:38.214Z,91531.34
2023-04-08T15:55:05.337Z,91530.44
2023-04-08T15:57:32.564Z,91530.28
2023-04-08T15:59:59.212Z,91537.50
2023-04-08T16:02:26.117Z,91550.47
2023-04-08T16:04:52.831Z,91539.81
2023-04-08T16:07:19.552Z,91544.56
2023-04-08T16:09:46.333Z,91542.91
2023-04-08T16:12:14.829Z,91547.63
2023-04-08T16:14:41.466Z,91544.97
2023-04-08T16:17:09.141Z,91552.38
2023-04-08T16:19:35.796Z,91553.34
2023-04-08T16:22:02.484Z,91548.47
2023-04-08T16:24:29.150Z,91543.47
2023-04-08T16:26:55.766Z,91545.38
2023-04-08T16:29:22.999Z,91552.84
2023-04-08T16:31:50.377Z,91551.41
2023-04-08T16:34:19.596Z,91556.94
2023-04-08T16:36:46.331Z,91560.44
2023-04-08T16:39:12.948Z,91563.03
2023-04-08T16:41:39.788Z,91566.66
2023-04-08T16:44:06.702Z,91571.19
2023-04-08T16:46:33.502Z,91570.81
2023-04-08T16:49:00.231Z,91577.13
2023-04-08T16:51:26.890Z,91585.53
2023-04-08T16:53:54.834Z,91580.81
2023-04-08T16:56:22.980Z,91578.47
2023-04-08T16:58:49.564Z,91580.31
2023-04-08T17:01:16.340Z,91589.94
2023-04-08T17:03:43.115Z,91591.75
2023-04-08T17:06:10.740Z,91587.72
2023-04-08T17:08:37.600Z,91587.47
2023-04-08T17:11:10.048Z,91597.19
2023-04-08T17:13:41.306Z,91604.53
2023-04-08T17:16:11.991Z,91599.19
2023-04-08T17:18:38.570Z,91607.16
2023-04-08T17:21:05.322Z,91616.41
2023-04-08T17:23:31.958Z,91608.88
2023-04-08T17:25:58.659Z,91612.16
2023-04-08T17:28:25.576Z,91613.78
2023-04-08T17:30:52.376Z,91619.59
2023-04-08T17:33:19.081Z,91622.38
2023-04-08T17:35:45.903Z,91624.00
2023-04-08T17:38:13.063Z,91625.81
2023-04-08T17:40:39.751Z,91631.13
2023-04-08T17:43:06.532Z,91633.19
2023-04-08T17:45:33.156Z,91635.16
2023-04-08T17:47:59.907Z,91636.47
2023-04-08T17:50:26.658Z,91631.38
2023-04-08T17:52:53.271Z,91643.19
2023-04-08T17:55:19.949Z,91645.28
2023-04-08T17:57:47.246Z,91639.38
2023-04-08T18:00:14.072Z,91648.91
2023-04-08T18:02:41.814Z,91657.16
2023-04-08T18:05:08.960Z,91660.84
2023-04-08T18:07:36.078Z,91658.94
2023-04-08T18:10:02.800Z,91665.38
2023-04-08T18:12:30.532Z,91663.91
2023-04-08T18:15:00.206Z,91664.13
2023-04-08T18:17:27.693Z,91669.75
2023-04-08T18:19:54.400Z,91674.97
2023-04-08T18:22:22.595Z,91685.75
2023-04-08T18:24:49.378Z,91682.03
2023-04-08T18:27:17.079Z,91689.44
2023-04-08T18:29:43.808Z,91684.97
2023-04-08T18:32:10.622Z,91684.16
2023-04-08T18:34:38.943Z,91687.38
2023-04-08T18:37:05.754Z,91690.31
2023-04-08T18:39:32.399Z,91685.09
2023-04-08T18:41:59.050Z,91691.78
2023-04-08T18:44:25.827Z,91696.00
2023-04-08T18:46:52.498Z,91696.31
2023-04-08T18:49:19.158Z,91699.09
2023-04-08T18:51:59.053Z,91703.34
2023-04-08T18:54:28.329Z,91705.44
2023-04-08T18:56:54.972Z,91705.78
2023-04-08T18:59:21.722Z,91707.69
2023-04-08T19:01:48.421Z,91716.84
2023-04-08T19:04:15.248Z,91709.16
2023-04-08T19:06:41.965Z,91718.78
2023-04-08T19:09:08.605Z,91715.63
2023-04-08T19:11:35.361Z,91723.53
2023-04-08T19:14:02.062Z,91718.09
2023-04-08T19:16:28.804Z,91727.06
2023-04-08T19:18:56.096Z,91722.19
2023-04-08T19:21:23.263Z,91719.72
2023-04-08T19:23:50.225Z,91720.91
2023-04-08T19:26:17.364Z,91725.31
2023-04-08T19:28:44.032Z,91724.34
2023-04-08T19:31:17.539Z,91716.09
2023-04-08T19:33:44.559Z,91720.66
2023-04-08T19:36:11.653Z,91720.66
2023-04-08T19:38:38.691Z,91721.19
2023-04-08T19:41:05.446Z,91720.91
2023-04-08T19:43:32.175Z,91713.63
2023-04-08T19:45:58.802Z,91713.06
2023-04-08T19:48:25.999Z,91713.72
2023-04-08T19:50:52.632Z,91716.75
2023-04-08T19:53:20.573Z,91707.28
2023-04-08T19:55:47.214Z,91711.63
2023-04-08T19:58:13.846Z,91715.78
2023-04-08T20:00:40.783Z,91713.69
2023-04-08T20:03:08.171Z,91713.25
2023-04-08T20:05:34.983Z,91712.38
2023-04-08T20:08:01.612Z,91715.44
2023-04-08T20:10:28.324Z,91719.41
2023-04-08T20:12:54.984Z,91711.25
2023-04-08T20:15:25.256Z,91713.06
2023-04-08T20:17:53.142Z,91711.44
2023-04-08T20:20:20.392Z,91708.97
2023-04-08T20:22:47.024Z,91712.41
2023-04-08T20:25:13.740Z,91713.56
2023-04-08T20:27:41.284Z,91713.69
2023-04-08T20:30:08.481Z,91715.25
2023-04-08T20:32:35.080Z,91715.59
2023-04-08T20:35:01.865Z,91717.88
2023-04-08T20:37:28.802Z,91720.03
2023-04-08T20:39:55.528Z,91715.00
2023-04-08T20:42:22.740Z,91719.09
2023-04-08T20:44:49.383Z,91721.09
2023-04-08T20:47:16.888Z,91723.88
2023-04-08T20:49:43.635Z,91725.31
2023-04-08T20:52:10.417Z,91724.09
2023-04-08T20:54:36.990Z,91719.66
2023-04-08T20:57:03.690Z,91716.78
2023-04-08T20:59:30.348Z,91718.97
2023-04-08T21:01:57.002Z,91718.53
2023-04-08T21:04:24.526Z,91725.34
2023-04-08T21:06:51.515Z,91718.53
2023-04-08T21:09:18.207Z,91719.66
2023-04-08T21:11:44.930Z,91713.22
2023-04-08T21:14:11.605Z,91713.44
2023-04-08T21:16:38.220Z,91710.81
2023-04-08T21:19:04.906Z,91716.88
2023-04-08T21:21:31.723Z,91709.91
2023-04-08T21:24:00.550Z,91716.25
2023-04-08T21:26:27.746Z,91706.34
2023-04-08T21:28:54.410Z,91709.81
2023-04-08T21:31:21.156Z,91706.88
2023-04-08T21:33:47.905Z,91712.53
2023-04-08T21:36:14.642Z,91714.81
2023-04-08T21:38:41.800Z,91710.06
2023-04-08T21:41:08.523Z,91706.97
2023-04-08T21:43:35.108Z,91707.16
2023-04-08T21:46:01.854Z,91708.47
2023-04-08T21:48:28.632Z,91705.78
2023-04-08T21:50:55.295Z,91705.56
2023-04-08T21:53:23.782Z,91702.03
2023-04-08T21:55:50.547Z,91705.59
2023-04-08T21:58:17.282Z,91704.88
2023-04-08T22:00:44.700Z,91704.53
2023-04-08T22:03:11.544Z,91703.53
2023-04-08T22:05:38.368Z,91699.00
2023-04-08T22:08:05.431Z,91697.88
2023-04-08T22:10:32.153Z,91699.03
2023-04-08T22:12:58.792Z,91694.97
2023-04-08T22:15:25.408Z,91697.00
2023-04-08T22:17:53.269Z,91700.88
2023-04-08T22:20:20.034Z,91709.13
2023-04-08T22:22:46.666Z,91703.25
2023-04-08T22:25:13.375Z,91707.00
2023-04-08T22:27:40.088Z,91706.66
2023-04-08T22:30:07.449Z,91704.94
2023-04-08T22:32:34.125Z,91702.28
2023-04-08T22:35:00.853Z,91714.09
2023-04-08T22:37:27.627Z,91697.00
2023-04-08T22:39:54.264Z,91701.03
2023-04-08T22:42:20.982Z,91705.28
2023-04-08T22:44:47.586Z,91697.06
2023-04-08T22:47:14.323Z,91703.25
2023-04-08T22:49:42.679Z,91705.34
2023-04-08T22:52:09.501Z,91699.88
2023-04-08T22:54:36.441Z,91703.41
2023-04-08T22:57:03.295Z,91704.03
2023-04-08T22:59:29.979Z,91698.72
2023-04-08T23:01:56.694Z,91695.81
2023-04-08T23:04:23.345Z,91692.00
2023-04-08T23:06:50.041Z,91693.88
2023-04-08T23:09:16.746Z,91697.25
2023-04-08T23:11:43.395Z,91692.59
2023-04-08T23:14:11.239Z,91690.88
2023-04-08T23:16:37.813Z,91685.66
2023-04-08T23:19:04.522Z,91695.25
2023-04-08T23:21:31.228Z,91691.50
2023-04-08T23:23:57.913Z,91679.09
2023-04-08T23:26:25.431Z,91682.59
2023-04-08T23:28:52.453Z,91680.66
2023-04-08T23:31:19.662Z,91676.78
2023-04-08T23:33:46.449Z,91674.22
2023-04-08T23:36:13.231Z,91679.63
2023-04-08T23:38:39.924Z,91677.56
2023-04-08T23:41:06.801Z,91679.25
2023-04-08T23:43:33.679Z,91674.09
2023-04-08T23:46:00.299Z,91677.44
2023-04-08T23:48:26.987Z,91683.66
2023-04-08T23:50:54.390Z,91682.69
2023-04-08T23:53:21.189Z,91677.38
2023-04-08T23:55:48.009Z,91688.19
2023-04-08T23:58:14.790Z,91682.69
